createdAt,value
2018-09-09T00:00:07.843Z,17.04
2018-09-09T00:02:36.933Z,17.00
2018-09-09T00:05:05.999Z,16.98
2018-09-09T00:07:34.695Z,16.97
2018-09-09T00:10:03.498Z,16.93
2018-09-09T00:12:32.973Z,16.96
2018-09-09T00:15:02.094Z,16.96
2018-09-09T00:17:30.808Z,16.99
2018-09-09T00:19:59.628Z,17.01
2018-09-09T00:22:29.485Z,16.97
2018-09-09T00:24:58.489Z,17.04
2018-09-09T00:27:27.086Z,17.07
2018-09-09T00:29:56.539Z,17.06
2018-09-09T00:32:26.127Z,17.04
2018-09-09T00:34:56.256Z,16.96
2018-09-09T00:37:24.845Z,16.98
2018-09-09T00:39:55.067Z,16.98
2018-09-09T00:42:24.380Z,16.98
2018-09-09T00:44:54.424Z,16.99
2018-09-09T00:47:24.087Z,17.00
2018-09-09T00:49:57.813Z,16.97
2018-09-09T00:52:33.900Z,16.95
2018-09-09T00:55:02.683Z,16.92
2018-09-09T00:57:31.336Z,16.91
2018-09-09T01:00:01.321Z,16.95
2018-09-09T01:02:30.865Z,17.03
2018-09-09T01:05:00.403Z,17.12
2018-09-09T01:07:30.969Z,17.17
2018-09-09T01:09:59.676Z,17.19
2018-09-09T01:12:28.816Z,17.21
2018-09-09T01:14:57.601Z,17.17
2018-09-09T01:17:26.753Z,17.10
2018-09-09T01:19:57.656Z,17.08
2018-09-09T01:22:26.319Z,17.08
2018-09-09T01:24:55.233Z,17.09
2018-09-09T01:27:23.925Z,17.03
2018-09-09T01:29:52.513Z,16.93
2018-09-09T01:32:21.226Z,16.90
2018-09-09T01:34:51.133Z,16.85
2018-09-09T01:37:20.484Z,16.85
2018-09-09T01:39:49.109Z,16.84
2018-09-09T01:42:17.976Z,16.80
2018-09-09T01:44:46.929Z,16.76
2018-09-09T01:47:16.615Z,16.80
2018-09-09T01:49:45.215Z,16.79
2018-09-09T01:52:14.663Z,16.84
2018-09-09T01:54:43.231Z,16.89
2018-09-09T01:57:12.996Z,16.92
2018-09-09T01:59:41.558Z,16.92
2018-09-09T02:02:11.348Z,16.94
2018-09-09T02:04:40.032Z,16.96
2018-09-09T02:07:08.728Z,16.96
2018-09-09T02:09:37.347Z,17.04
2018-09-09T02:12:05.917Z,17.12
2018-09-09T02:14:35.414Z,17.15
2018-09-09T02:17:04.711Z,17.22
2018-09-09T02:19:33.285Z,17.22
2018-09-09T02:22:01.963Z,17.19
2018-09-09T02:24:30.676Z,17.16
2018-09-09T02:26:59.321Z,17.12
2018-09-09T02:29:27.899Z,17.12
2018-09-09T02:31:56.496Z,17.13
2018-09-09T02:34:25.927Z,17.12
2018-09-09T02:36:54.537Z,17.10
2018-09-09T02:39:23.686Z,17.08
2018-09-09T02:41:53.134Z,17.03
2018-09-09T02:44:22.037Z,16.97
2018-09-09T02:46:50.694Z,16.94
2018-09-09T02:49:20.196Z,16.95
2018-09-09T02:51:48.819Z,16.86
2018-09-09T02:54:17.507Z,16.84
2018-09-09T02:56:46.336Z,16.80
2018-09-09T02:59:15.073Z,16.77
2018-09-09T03:01:44.310Z,16.72
2018-09-09T03:04:14.148Z,16.70
2018-09-09T03:06:42.766Z,16.67
2018-09-09T03:09:11.757Z,16.64
2018-09-09T03:11:41.392Z,16.65
2018-09-09T03:14:09.913Z,16.65
2018-09-09T03:16:39.304Z,16.65
2018-09-09T03:19:08.050Z,16.59
2018-09-09T03:21:37.845Z,16.59
2018-09-09T03:24:06.606Z,16.57
2018-09-09T03:26:35.216Z,16.56
2018-09-09T03:29:04.502Z,16.54
2018-09-09T03:31:33.204Z,16.53
2018-09-09T03:34:02.564Z,16.52
2018-09-09T03:36:32.173Z,16.54
2018-09-09T03:39:00.857Z,16.51
2018-09-09T03:41:30.302Z,16.51
2018-09-09T03:43:59.387Z,16.51
2018-09-09T03:46:29.703Z,16.48
2018-09-09T03:48:59.726Z,16.47
2018-09-09T03:51:29.312Z,16.42
2018-09-09T03:53:59.826Z,16.41
2018-09-09T03:56:28.566Z,16.38
2018-09-09T03:58:58.116Z,16.31
2018-09-09T04:01:27.851Z,16.30
2018-09-09T04:03:58.456Z,16.23
2018-09-09T04:06:27.168Z,16.19
2018-09-09T04:08:55.823Z,16.16
2018-09-09T04:11:24.489Z,16.09
2018-09-09T04:13:53.456Z,16.09
2018-09-09T04:16:22.744Z,16.01
2018-09-09T04:18:52.375Z,15.99
2018-09-09T04:21:22.072Z,15.97
2018-09-09T04:23:51.766Z,15.95
2018-09-09T04:26:20.776Z,15.94
2018-09-09T04:28:49.472Z,15.94
2018-09-09T04:31:18.837Z,15.96
2018-09-09T04:33:47.459Z,15.91
2018-09-09T04:36:16.088Z,15.86
2018-09-09T04:38:45.119Z,15.82
2018-09-09T04:41:14.158Z,15.77
2018-09-09T04:43:42.915Z,15.76
2018-09-09T04:46:12.217Z,15.75
2018-09-09T04:48:41.665Z,15.72
2018-09-09T04:51:11.304Z,15.68
2018-09-09T04:53:40.026Z,15.65
2018-09-09T04:56:10.032Z,15.64
2018-09-09T04:58:39.803Z,15.60
2018-09-09T05:01:09.943Z,15.61
2018-09-09T05:03:38.643Z,15.57
2018-09-09T05:06:07.293Z,15.56
2018-09-09T05:08:36.050Z,15.55
2018-09-09T05:11:05.882Z,15.52
2018-09-09T05:13:35.672Z,15.50
2018-09-09T05:16:04.358Z,15.51
2018-09-09T05:18:32.920Z,15.53
2018-09-09T05:21:03.328Z,15.54
2018-09-09T05:23:31.881Z,15.50
2018-09-09T05:26:02.941Z,15.55
2018-09-09T05:28:31.573Z,15.53
2018-09-09T05:31:03.314Z,15.54
2018-09-09T05:33:31.894Z,15.55
2018-09-09T05:36:02.225Z,15.55
2018-09-09T05:38:30.868Z,15.59
2018-09-09T05:40:59.777Z,15.62
2018-09-09T05:43:28.393Z,15.65
2018-09-09T05:45:57.261Z,15.64
2018-09-09T05:48:25.794Z,15.68
2018-09-09T05:50:54.373Z,15.66
2018-09-09T05:53:23.858Z,15.69
2018-09-09T05:55:53.205Z,15.73
2018-09-09T05:58:22.433Z,15.74
2018-09-09T06:00:52.756Z,15.76
2018-09-09T06:03:22.265Z,15.77
2018-09-09T06:05:51.421Z,15.76
2018-09-09T06:08:21.369Z,15.78
2018-09-09T06:10:53.359Z,15.80
2018-09-09T06:13:23.235Z,15.87
2018-09-09T06:15:51.865Z,15.93
2018-09-09T06:18:21.430Z,16.01
2018-09-09T06:20:51.042Z,16.05
2018-09-09T06:23:19.697Z,16.07
2018-09-09T06:25:49.731Z,16.10
2018-09-09T06:28:18.983Z,16.14
2018-09-09T06:30:48.071Z,16.14
2018-09-09T06:33:18.093Z,16.18
2018-09-09T06:35:46.859Z,16.24
2018-09-09T06:38:16.191Z,16.32
2018-09-09T06:40:45.193Z,16.42
2018-09-09T06:43:15.175Z,16.54
2018-09-09T06:45:47.115Z,16.70
2018-09-09T06:48:16.100Z,16.85
2018-09-09T06:50:45.107Z,17.00
2018-09-09T06:53:14.091Z,17.12
2018-09-09T06:55:42.704Z,17.17
2018-09-09T06:58:12.140Z,17.27
2018-09-09T07:00:41.448Z,17.49
2018-09-09T07:03:12.664Z,17.62
2018-09-09T07:05:41.520Z,17.82
2018-09-09T07:08:12.867Z,18.02
2018-09-09T07:10:42.710Z,18.16
2018-09-09T07:13:12.560Z,18.27
2018-09-09T07:15:43.472Z,18.28
2018-09-09T07:18:14.664Z,18.26
2018-09-09T07:20:46.142Z,18.23
2018-09-09T07:23:17.587Z,18.20
2018-09-09T07:25:47.258Z,18.12
2018-09-09T07:28:16.349Z,18.04
2018-09-09T07:30:45.744Z,18.07
2018-09-09T07:33:15.580Z,18.03
2018-09-09T07:35:45.541Z,18.04
2018-09-09T07:38:15.277Z,18.06
2018-09-09T07:40:43.867Z,18.13
2018-09-09T07:43:12.564Z,18.17
2018-09-09T07:45:41.276Z,18.14
2018-09-09T07:48:10.115Z,18.14
2018-09-09T07:50:41.703Z,18.17
2018-09-09T07:53:10.575Z,18.27
2018-09-09T07:55:39.220Z,18.37
2018-09-09T07:58:08.958Z,18.46
2018-09-09T08:00:38.268Z,18.54
2018-09-09T08:03:07.576Z,18.62
2018-09-09T08:05:36.427Z,18.65
2018-09-09T08:08:05.238Z,18.66
2018-09-09T08:10:35.684Z,18.70
2018-09-09T08:13:04.735Z,18.76
2018-09-09T08:15:33.378Z,18.91
2018-09-09T08:18:03.620Z,18.95
2018-09-09T08:20:32.671Z,19.03
2018-09-09T08:23:02.653Z,19.13
2018-09-09T08:25:31.526Z,19.24
2018-09-09T08:28:03.640Z,19.35
2018-09-09T08:30:33.231Z,19.47
2018-09-09T08:33:01.871Z,19.51
2018-09-09T08:35:32.052Z,19.52
2018-09-09T08:38:04.251Z,19.56
2018-09-09T08:40:33.425Z,19.58
2018-09-09T08:43:02.644Z,19.57
2018-09-09T08:45:32.038Z,19.59
2018-09-09T08:48:01.875Z,19.59
2018-09-09T08:50:31.250Z,19.60
2018-09-09T08:53:00.290Z,19.61
2018-09-09T08:55:30.084Z,19.60
2018-09-09T08:57:58.688Z,19.61
2018-09-09T09:00:27.462Z,19.65
2018-09-09T09:02:57.825Z,19.70
2018-09-09T09:05:27.411Z,19.78
2018-09-09T09:07:57.485Z,19.88
2018-09-09T09:10:27.066Z,19.94
2018-09-09T09:12:56.356Z,20.01
2018-09-09T09:15:26.528Z,20.08
2018-09-09T09:17:56.165Z,20.15
2018-09-09T09:20:25.490Z,20.20
2018-09-09T09:23:01.039Z,20.24
2018-09-09T09:25:29.880Z,20.29
2018-09-09T09:27:58.545Z,20.32
2018-09-09T09:30:27.637Z,20.37
2018-09-09T09:32:56.327Z,20.44
2018-09-09T09:35:30.346Z,20.54
2018-09-09T09:37:58.943Z,20.62
2018-09-09T09:40:28.703Z,20.58
2018-09-09T09:42:57.819Z,20.61
2018-09-09T09:45:26.532Z,20.62
2018-09-09T09:47:55.168Z,20.70
2018-09-09T09:50:24.405Z,20.80
2018-09-09T09:52:54.269Z,20.88
2018-09-09T09:55:22.962Z,20.96
2018-09-09T09:57:51.550Z,21.03
2018-09-09T10:00:26.272Z,21.07
2018-09-09T10:02:56.221Z,21.15
2018-09-09T10:05:24.936Z,21.17
2018-09-09T10:07:54.106Z,21.21
2018-09-09T10:10:24.068Z,21.20
2018-09-09T10:12:52.707Z,21.24
2018-09-09T10:15:21.469Z,21.34
2018-09-09T10:17:50.494Z,21.39
2018-09-09T10:20:20.778Z,21.45
2018-09-09T10:22:50.288Z,21.52
2018-09-09T10:25:19.671Z,21.60
2018-09-09T10:27:48.603Z,21.69
2018-09-09T10:30:18.039Z,21.71
2018-09-09T10:32:47.390Z,21.74
2018-09-09T10:35:16.508Z,21.80
2018-09-09T10:37:45.518Z,21.85
2018-09-09T10:40:14.390Z,21.78
2018-09-09T10:42:44.827Z,21.83
2018-09-09T10:45:13.749Z,21.88
2018-09-09T10:47:43.364Z,21.89
2018-09-09T10:50:12.184Z,21.83
2018-09-09T10:52:40.803Z,21.80
2018-09-09T10:55:09.526Z,21.80
2018-09-09T10:57:38.857Z,21.85
2018-09-09T11:00:08.696Z,21.90
2018-09-09T11:02:37.383Z,21.97
2018-09-09T11:05:21.360Z,22.06
2018-09-09T11:07:52.699Z,22.17
2018-09-09T11:10:22.341Z,22.29
2018-09-09T11:12:52.062Z,22.32
2018-09-09T11:15:24.354Z,22.44
2018-09-09T11:17:53.160Z,22.54
2018-09-09T11:20:22.656Z,22.60
2018-09-09T11:22:51.878Z,22.67
2018-09-09T11:25:21.436Z,22.64
2018-09-09T11:27:50.265Z,22.71
2018-09-09T11:30:18.918Z,22.69
2018-09-09T11:32:47.860Z,22.81
2018-09-09T11:35:16.569Z,22.92
2018-09-09T11:37:46.246Z,22.99
2018-09-09T11:40:15.578Z,23.09
2018-09-09T11:42:44.434Z,23.09
2018-09-09T11:45:14.313Z,23.22
2018-09-09T11:47:42.890Z,23.35
2018-09-09T11:50:13.008Z,23.44
2018-09-09T11:52:41.605Z,23.50
2018-09-09T11:55:10.261Z,23.49
2018-09-09T11:57:40.472Z,23.61
2018-09-09T12:00:09.178Z,23.66
2018-09-09T12:02:37.693Z,23.70
2018-09-09T12:05:06.823Z,23.74
2018-09-09T12:07:36.469Z,23.72
2018-09-09T12:10:07.367Z,23.77
2018-09-09T12:12:35.913Z,23.83
2018-09-09T12:15:05.079Z,23.91
2018-09-09T12:17:34.670Z,23.93
2018-09-09T12:20:04.972Z,24.01
2018-09-09T12:22:34.629Z,23.89
2018-09-09T12:25:05.313Z,23.72
2018-09-09T12:27:35.456Z,23.80
2018-09-09T12:30:04.036Z,23.97
2018-09-09T12:32:34.428Z,24.06
2018-09-09T12:35:03.317Z,23.93
2018-09-09T12:37:33.812Z,23.93
2018-09-09T12:40:02.427Z,23.92
2018-09-09T12:42:31.335Z,24.09
2018-09-09T12:45:06.142Z,24.25
2018-09-09T12:47:40.387Z,24.36
2018-09-09T12:50:10.341Z,24.28
2018-09-09T12:52:40.666Z,24.44
2018-09-09T12:55:09.773Z,24.61
2018-09-09T12:57:39.100Z,24.62
2018-09-09T13:00:08.263Z,24.63
2018-09-09T13:02:37.707Z,24.64
2018-09-09T13:05:08.568Z,24.73
2018-09-09T13:07:37.778Z,24.78
2018-09-09T13:10:08.045Z,24.80
2018-09-09T13:12:42.104Z,24.87
2018-09-09T13:15:11.721Z,24.97
2018-09-09T13:17:40.810Z,24.96
2018-09-09T13:20:10.004Z,24.95
2018-09-09T13:22:39.169Z,24.96
2018-09-09T13:25:09.826Z,25.14
2018-09-09T13:27:39.927Z,25.22
2018-09-09T13:30:09.076Z,25.15
2018-09-09T13:32:37.747Z,25.07
2018-09-09T13:35:06.535Z,24.92
2018-09-09T13:37:36.270Z,24.64
2018-09-09T13:40:05.018Z,24.37
2018-09-09T13:42:33.976Z,24.22
2018-09-09T13:45:03.887Z,24.15
2018-09-09T13:47:32.584Z,24.05
2018-09-09T13:50:02.510Z,23.94
2018-09-09T13:52:31.326Z,23.83
2018-09-09T13:55:01.041Z,23.80
2018-09-09T13:57:32.627Z,23.80
2018-09-09T14:00:02.314Z,23.74
2018-09-09T14:02:31.912Z,23.71
2018-09-09T14:05:01.384Z,23.66
2018-09-09T14:07:30.429Z,23.69
2018-09-09T14:09:59.501Z,23.71
2018-09-09T14:12:28.318Z,23.72
2018-09-09T14:14:56.865Z,23.66
2018-09-09T14:17:26.047Z,23.68
2018-09-09T14:19:54.745Z,23.64
2018-09-09T14:22:23.828Z,23.55
2018-09-09T14:24:52.771Z,23.46
2018-09-09T14:27:22.237Z,23.43
2018-09-09T14:29:51.724Z,23.41
2018-09-09T14:32:21.210Z,23.40
2018-09-09T14:34:50.533Z,23.43
2018-09-09T14:37:20.852Z,23.47
2018-09-09T14:39:50.817Z,23.58
2018-09-09T14:42:20.671Z,23.68
2018-09-09T14:44:49.533Z,23.76
2018-09-09T14:47:19.699Z,23.73
2018-09-09T14:49:49.601Z,23.68
2018-09-09T14:52:19.715Z,23.75
2018-09-09T14:54:48.397Z,23.90
2018-09-09T14:57:17.285Z,24.33
2018-09-09T14:59:46.276Z,24.82
2018-09-09T15:02:15.293Z,25.10
2018-09-09T15:04:45.052Z,25.45
2018-09-09T15:07:14.342Z,25.77
2018-09-09T15:09:43.860Z,25.89
2018-09-09T15:12:13.379Z,25.87
2018-09-09T15:14:42.158Z,25.72
2018-09-09T15:17:11.570Z,25.56
2018-09-09T15:19:41.426Z,25.49
2018-09-09T15:22:11.623Z,25.67
2018-09-09T15:24:40.340Z,25.82
2018-09-09T15:27:09.432Z,25.81
2018-09-09T15:29:38.015Z,25.76
2018-09-09T15:32:08.053Z,25.61
2018-09-09T15:34:37.696Z,25.72
2018-09-09T15:37:07.012Z,25.72
2018-09-09T15:39:35.605Z,25.56
2018-09-09T15:42:05.164Z,25.44
2018-09-09T15:44:35.027Z,25.57
2018-09-09T15:47:04.848Z,25.67
2018-09-09T15:49:34.047Z,25.70
2018-09-09T15:52:03.031Z,25.53
2018-09-09T15:54:31.834Z,25.27
2018-09-09T15:57:00.421Z,25.15
2018-09-09T15:59:29.056Z,24.98
2018-09-09T16:01:57.768Z,24.74
2018-09-09T16:04:33.203Z,24.60
2018-09-09T16:07:04.843Z,24.47
2018-09-09T16:09:42.537Z,24.33
2018-09-09T16:12:11.944Z,24.16
2018-09-09T16:14:41.724Z,24.08
2018-09-09T16:17:10.910Z,23.98
2018-09-09T16:19:40.428Z,23.92
2018-09-09T16:22:09.396Z,23.84
2018-09-09T16:24:38.068Z,23.77
2018-09-09T16:27:08.134Z,23.70
2018-09-09T16:29:38.258Z,23.64
2018-09-09T16:32:06.833Z,23.57
2018-09-09T16:34:36.242Z,23.48
2018-09-09T16:37:05.727Z,23.42
2018-09-09T16:39:34.895Z,23.38
2018-09-09T16:42:04.085Z,23.36
2018-09-09T16:44:32.840Z,23.33
2018-09-09T16:47:02.039Z,23.30
2018-09-09T16:49:30.789Z,23.27
2018-09-09T16:52:00.505Z,23.20
2018-09-09T16:54:29.205Z,23.20
2018-09-09T16:56:58.824Z,23.25
2018-09-09T16:59:28.057Z,23.26
2018-09-09T17:01:57.963Z,23.27
2018-09-09T17:04:26.793Z,23.25
2018-09-09T17:06:55.507Z,23.20
2018-09-09T17:09:24.798Z,23.14
2018-09-09T17:11:53.619Z,23.05
2018-09-09T17:14:22.478Z,22.95
2018-09-09T17:16:51.992Z,22.84
2018-09-09T17:19:21.711Z,22.71
2018-09-09T17:21:50.450Z,22.64
2018-09-09T17:24:21.299Z,22.56
2018-09-09T17:26:49.999Z,22.47
2018-09-09T17:29:19.002Z,22.37
2018-09-09T17:31:48.019Z,22.26
2018-09-09T17:34:16.601Z,22.17
2018-09-09T17:36:45.146Z,22.10
2018-09-09T17:39:13.726Z,22.01
2018-09-09T17:41:43.166Z,21.89
2018-09-09T17:44:12.700Z,21.83
2018-09-09T17:46:41.410Z,21.71
2018-09-09T17:49:10.938Z,21.64
2018-09-09T17:51:39.775Z,21.53
2018-09-09T17:54:08.466Z,21.45
2018-09-09T17:56:39.196Z,21.36
2018-09-09T17:59:08.673Z,21.28
2018-09-09T18:01:37.469Z,21.22
2018-09-09T18:04:06.371Z,21.16
2018-09-09T18:06:35.168Z,21.07
2018-09-09T18:09:06.861Z,21.01
2018-09-09T18:11:36.207Z,20.94
2018-09-09T18:14:05.458Z,20.87
2018-09-09T18:16:34.162Z,20.79
2018-09-09T18:19:03.655Z,20.74
2018-09-09T18:21:33.744Z,20.67
2018-09-09T18:24:02.985Z,20.63
2018-09-09T18:26:32.127Z,20.56
2018-09-09T18:29:00.757Z,20.51
2018-09-09T18:31:29.358Z,20.46
2018-09-09T18:33:58.097Z,20.39
2018-09-09T18:36:26.734Z,20.34
2018-09-09T18:38:55.580Z,20.27
2018-09-09T18:41:24.248Z,20.23
2018-09-09T18:43:53.249Z,20.19
2018-09-09T18:46:21.970Z,20.14
2018-09-09T18:48:56.614Z,20.09
2018-09-09T18:51:31.540Z,20.03
2018-09-09T18:54:00.434Z,19.95
2018-09-09T18:56:29.185Z,19.90
2018-09-09T18:58:58.007Z,19.86
2018-09-09T19:01:26.842Z,19.83
2018-09-09T19:03:55.967Z,19.78
2018-09-09T19:06:26.798Z,19.75
2018-09-09T19:08:56.068Z,19.71
2018-09-09T19:11:26.044Z,19.68
2018-09-09T19:13:56.100Z,19.66
2018-09-09T19:16:27.841Z,19.63
2018-09-09T19:18:56.891Z,19.57
2018-09-09T19:21:26.485Z,19.55
2018-09-09T19:23:56.209Z,19.51
2018-09-09T19:26:26.346Z,19.47
2018-09-09T19:28:57.022Z,19.46
2018-09-09T19:31:27.208Z,19.39
2018-09-09T19:33:57.245Z,19.38
2018-09-09T19:36:27.490Z,19.35
2018-09-09T19:38:56.540Z,19.30
2018-09-09T19:41:27.748Z,19.29
2018-09-09T19:43:57.277Z,19.26
2018-09-09T19:46:27.274Z,19.23
2018-09-09T19:48:57.012Z,19.17
2018-09-09T19:51:25.871Z,19.12
2018-09-09T19:53:54.885Z,19.09
2018-09-09T19:56:23.618Z,19.04
2018-09-09T19:58:53.841Z,19.00
2018-09-09T20:01:22.802Z,18.97
2018-09-09T20:03:51.623Z,18.93
2018-09-09T20:06:21.220Z,18.89
2018-09-09T20:08:50.769Z,18.87
2018-09-09T20:11:21.295Z,18.83
2018-09-09T20:13:50.946Z,18.81
2018-09-09T20:16:20.469Z,18.79
2018-09-09T20:18:56.349Z,18.77
2018-09-09T20:21:24.947Z,18.72
2018-09-09T20:23:53.870Z,18.70
2018-09-09T20:26:23.248Z,18.68
2018-09-09T20:28:52.207Z,18.61
2018-09-09T20:31:22.566Z,18.60
2018-09-09T20:33:51.228Z,18.61
2018-09-09T20:36:21.153Z,18.63
2018-09-09T20:38:49.857Z,18.62
2018-09-09T20:41:18.849Z,18.59
2018-09-09T20:43:47.612Z,18.52
2018-09-09T20:46:16.430Z,18.48
2018-09-09T20:48:46.287Z,18.47
2018-09-09T20:51:14.899Z,18.45
2018-09-09T20:53:43.638Z,18.42
2018-09-09T20:56:12.319Z,18.39
2018-09-09T20:58:41.035Z,18.37
2018-09-09T21:01:09.662Z,18.37
2018-09-09T21:03:38.283Z,18.35
2018-09-09T21:06:06.927Z,18.31
2018-09-09T21:08:38.119Z,18.29
2018-09-09T21:11:06.884Z,18.27
2018-09-09T21:13:36.086Z,18.26
2018-09-09T21:16:04.814Z,18.24
2018-09-09T21:18:33.579Z,18.24
2018-09-09T21:21:03.264Z,18.22
2018-09-09T21:23:31.836Z,18.20
2018-09-09T21:26:00.619Z,18.15
2018-09-09T21:28:29.236Z,18.17
2018-09-09T21:30:58.771Z,18.17
2018-09-09T21:33:27.506Z,18.14
2018-09-09T21:35:56.476Z,18.13
2018-09-09T21:38:25.898Z,18.15
2018-09-09T21:40:54.596Z,18.15
2018-09-09T21:43:26.754Z,18.13
2018-09-09T21:45:55.898Z,18.12
2018-09-09T21:48:25.001Z,18.11
2018-09-09T21:50:53.776Z,18.06
2018-09-09T21:53:22.293Z,18.04
2018-09-09T21:55:51.624Z,18.02
2018-09-09T21:58:20.769Z,18.01
2018-09-09T22:00:54.594Z,17.97
2018-09-09T22:03:23.281Z,17.92
2018-09-09T22:05:52.237Z,17.91
2018-09-09T22:08:21.208Z,17.89
2018-09-09T22:10:50.242Z,17.88
2018-09-09T22:13:19.058Z,17.89
2018-09-09T22:15:48.420Z,17.91
2018-09-09T22:18:18.934Z,17.93
2018-09-09T22:20:48.283Z,17.94
2018-09-09T22:23:17.053Z,17.91
2018-09-09T22:25:45.764Z,17.91
2018-09-09T22:28:14.358Z,17.91
2018-09-09T22:30:44.048Z,17.84
2018-09-09T22:33:13.168Z,17.86
2018-09-09T22:35:42.220Z,17.87
2018-09-09T22:38:10.814Z,17.81
2018-09-09T22:40:39.516Z,17.79
2018-09-09T22:43:08.470Z,17.74
2018-09-09T22:45:37.435Z,17.72
2018-09-09T22:48:06.147Z,17.74
2018-09-09T22:50:34.725Z,17.72
2018-09-09T22:53:03.587Z,17.69
2018-09-09T22:55:32.609Z,17.67
2018-09-09T22:58:01.470Z,17.58
2018-09-09T23:00:31.604Z,17.54
2018-09-09T23:03:00.236Z,17.56
2018-09-09T23:05:29.093Z,17.51
2018-09-09T23:07:57.873Z,17.46
2018-09-09T23:10:26.598Z,17.45
2018-09-09T23:12:55.279Z,17.41
2018-09-09T23:15:27.395Z,17.39
2018-09-09T23:17:56.516Z,17.39
2018-09-09T23:20:25.090Z,17.31
2018-09-09T23:22:54.256Z,17.28
2018-09-09T23:25:23.749Z,17.22
2018-09-09T23:27:52.716Z,17.27
2018-09-09T23:30:21.967Z,17.35
2018-09-09T23:32:50.928Z,17.38
2018-09-09T23:35:19.441Z,17.38
2018-09-09T23:37:48.051Z,17.35
2018-09-09T23:40:16.874Z,17.29
2018-09-09T23:42:47.453Z,17.29
2018-09-09T23:45:16.345Z,17.27
2018-09-09T23:47:45.154Z,17.30
2018-09-09T23:50:13.699Z,17.31
2018-09-09T23:52:42.271Z,17.31
2018-09-09T23:55:11.139Z,17.30
2018-09-09T23:57:39.736Z,17.29
